METAR Italia - 19 Feb 2018 - 0153 UTC - RocketRoute WX - rrwx.com
LIEA 190120Z VRB01KT CAVOK 10/09 Q1014 LIBD 190120Z 31004KT 5000 DZ FEW006 BKN030 09/08 Q1013 LIME 190120Z 03003KT 9999 -RA SCT035 BKN045 03/01 Q1020 NOSIG LIPE 190120Z 34003KT 310V010 7000 -RA SCT008 BKN015 04/03 Q1020 LIRN 190120Z 02005KT 4000 -DZ BR SCT020 BKN035 11/10 Q1012 NOSIG LICC 190120Z 24003KT 8000 BKN060 10/09 Q1012 LIRA 190120Z 02004KT 320V060 8000 3000NW FEW005 05/04 Q1012 LIBC   LIEE 190120Z 35004KT 9999 FEW020 08/06 Q1014 LIPY 190050Z 08003KT 040V120 5000 -RA BR SCT006 BKN020 07/06 Q1017 LIRF 190120Z VRB03KT 4000 BCFG SCT020 05/05 Q1013 NOSIG LIMJ 190120Z VRB04KT 9999 SCT050 07/01 Q1017 LICD   LIML 190120Z 07002KT 8000 FEW020 BKN050 05/01 Q1020 NOSIG LIMC 190120Z 04003KT 9999 BKN035 04/01 Q1020 NOSIG LIEO 190120Z 26005KT 9999 -RA SCT030 10/08 Q1014 LICJ 190120Z 20009KT 9999 SCT018 13/10 Q1012 LIBP 190113Z AUTO 29009KT 9999 -RA OVC011/// 08/06 Q1015 LIRP 190115Z 09008KT 9999 FEW050 BKN060 08/M01 Q1016 NOSIG LICR   LIMF 190120Z 34006KT 4500 -DZ SCT010 BKN020 03/03 Q1020 REDZ LIRU   LIPZ 190120Z 07015KT 9999 BKN060 05/M01 Q1020 NOSIG

RocketRoute WX - rrwx.com weather for pilots